Time;durP1;ratioP1;P1;durP2;ratioP2;P2;SDS_P1;SDS_P2;PMS_P1;PMS_P2;Temp;Humidity;BMP_temperature;BMP_pressure;BME280_temperature;BME280_humidity;BME280_pressure;Samples;Min_cycle;Max_cycle;Signal;HPM_P1;HPM_P2
2023/08/18 00:02:24;;;;;;;6.50;2.33;;;19.60;99.90;;;;;;4980449;28;20026;-72
2023/08/18 00:04:49;;;;;;;5.30;2.45;;;19.50;99.90;;;;;;4976768;28;20049;-73
2023/08/18 00:07:15;;;;;;;5.72;2.08;;;19.40;99.90;;;;;;4972119;28;20030;-72
2023/08/18 00:09:43;;;;;;;4.15;2.30;;;19.50;99.90;;;;;;4978441;28;20037;-73
2023/08/18 00:12:09;;;;;;;3.97;2.10;;;19.50;99.90;;;;;;4986435;28;20034;-73
2023/08/18 00:14:35;;;;;;;6.22;2.33;;;19.40;99.90;;;;;;4979026;28;20042;-73
2023/08/18 00:17:01;;;;;;;6.15;1.92;;;19.40;99.90;;;;;;4969489;28;20053;-73
2023/08/18 00:19:27;;;;;;;4.00;1.88;;;19.50;99.90;;;;;;4973609;28;20065;-73
2023/08/18 00:21:52;;;;;;;4.45;2.28;;;19.30;99.90;;;;;;4970562;28;20035;-73
2023/08/18 00:24:18;;;;;;;5.30;2.60;;;19.30;99.90;;;;;;4964482;28;20035;-73
2023/08/18 00:26:45;;;;;;;4.78;1.92;;;19.40;99.90;;;;;;4971620;28;20080;-73
2023/08/18 00:29:11;;;;;;;4.72;2.50;;;19.30;99.90;;;;;;4975038;28;20034;-72
2023/08/18 00:31:37;;;;;;;5.22;2.25;;;19.20;99.90;;;;;;4976536;28;20065;-73
2023/08/18 00:34:04;;;;;;;5.63;1.88;;;19.10;99.90;;;;;;4981002;28;20057;-73
2023/08/18 00:36:30;;;;;;;4.32;2.20;;;19.20;99.90;;;;;;4974114;28;20595;-73
2023/08/18 00:38:56;;;;;;;4.78;2.50;;;19.30;99.90;;;;;;4966076;28;20025;-73
2023/08/18 00:41:22;;;;;;;3.83;1.70;;;19.40;99.90;;;;;;4972646;28;20524;-73
2023/08/18 00:43:48;;;;;;;4.75;2.50;;;19.50;99.90;;;;;;4976963;28;20045;-73
2023/08/18 00:46:15;;;;;;;5.97;2.80;;;19.50;99.90;;;;;;4977733;28;20042;-72
2023/08/18 00:48:42;;;;;;;4.15;1.90;;;19.50;99.90;;;;;;4967912;28;20350;-73
2023/08/18 00:51:09;;;;;;;5.78;2.25;;;19.50;99.90;;;;;;4984180;28;20098;-73
2023/08/18 00:53:36;;;;;;;4.47;1.90;;;19.50;99.90;;;;;;4977721;28;20052;-73
2023/08/18 00:56:03;;;;;;;3.90;2.13;;;19.60;99.90;;;;;;4965287;28;20098;-73
2023/08/18 00:58:29;;;;;;;5.00;2.25;;;19.60;99.90;;;;;;4971912;28;20034;-73
2023/08/18 01:00:55;;;;;;;3.88;2.13;;;19.30;99.90;;;;;;4965527;28;20106;-73
2023/08/18 01:03:21;;;;;;;5.25;2.92;;;19.30;99.90;;;;;;4966709;28;20654;-72
2023/08/18 01:05:46;;;;;;;5.60;2.92;;;19.40;99.90;;;;;;4978562;28;20042;-73
2023/08/18 01:08:12;;;;;;;4.75;2.63;;;19.40;99.90;;;;;;4973544;28;20384;-72
2023/08/18 01:10:55;;;;;;;7.32;2.60;;;19.40;99.90;;;;;;4965928;28;20030;-73
2023/08/18 01:13:57;;;;;;;5.60;2.78;;;19.50;99.90;;;;;;4964746;28;20425;-73
2023/08/18 01:16:27;;;;;;;6.10;2.95;;;19.60;99.90;;;;;;4981666;28;20042;-73
2023/08/18 01:18:54;;;;;;;5.53;2.40;;;19.50;99.90;;;;;;4976470;28;20031;-73
2023/08/18 01:21:21;;;;;;;5.13;2.13;;;19.40;99.90;;;;;;4970675;28;20037;-72
2023/08/18 01:23:48;;;;;;;6.50;2.65;;;19.40;99.90;;;;;;4975609;28;20027;-73
2023/08/18 01:26:13;;;;;;;5.75;2.40;;;19.50;99.90;;;;;;4969600;28;20035;-73
2023/08/18 01:28:40;;;;;;;4.53;2.30;;;19.50;99.90;;;;;;4968275;28;20049;-72
2023/08/18 01:31:28;;;;;;;3.88;2.17;;;19.30;99.90;;;;;;4984790;28;20034;-73
2023/08/18 01:34:07;;;;;;;6.38;2.60;;;19.40;99.90;;;;;;4976776;28;20050;-73
2023/08/18 01:36:41;;;;;;;9.25;2.75;;;19.40;99.90;;;;;;4968014;28;20543;-73
2023/08/18 01:39:09;;;;;;;;;;;19.40;99.90;;;;;;4968623;28;20030;-73
2023/08/18 01:41:35;;;;;;;5.55;2.72;;;19.40;99.90;;;;;;4976774;28;19918;-72
2023/08/18 01:44:01;;;;;;;6.15;3.15;;;19.40;99.90;;;;;;4967359;28;20034;-73
2023/08/18 01:46:27;;;;;;;7.95;2.90;;;19.30;99.90;;;;;;4984590;28;20041;-72
2023/08/18 01:48:52;;;;;;;7.88;3.00;;;19.30;99.90;;;;;;4983497;28;20104;-72
2023/08/18 01:51:18;;;;;;;6.57;2.47;;;19.40;99.90;;;;;;4978839;28;20026;-72
2023/08/18 01:53:44;;;;;;;4.53;2.45;;;19.50;99.90;;;;;;4971702;28;20045;-73
2023/08/18 01:56:09;;;;;;;6.70;2.97;;;19.50;99.90;;;;;;4973182;28;20059;-73
2023/08/18 01:58:35;;;;;;;5.10;2.40;;;19.50;99.90;;;;;;4976084;28;20060;-73
2023/08/18 02:01:01;;;;;;;5.00;2.17;;;19.40;99.90;;;;;;4979469;28;20075;-73
2023/08/18 02:03:27;;;;;;;7.28;2.83;;;19.40;99.90;;;;;;4980398;28;20050;-72
2023/08/18 02:05:53;;;;;;;4.38;2.53;;;19.30;99.90;;;;;;4981602;28;20097;-73
2023/08/18 02:08:20;;;;;;;5.15;2.83;;;19.50;99.90;;;;;;4975160;28;20066;-73
2023/08/18 02:10:46;;;;;;;7.80;3.38;;;19.50;99.90;;;;;;4976119;28;20412;-72
2023/08/18 02:13:11;;;;;;;4.70;2.83;;;19.50;99.90;;;;;;4982186;28;20033;-73
2023/08/18 02:15:37;;;;;;;7.05;2.83;;;19.40;99.90;;;;;;4970771;28;20057;-72
2023/08/18 02:18:04;;;;;;;5.35;2.53;;;19.50;99.90;;;;;;4973059;28;20030;-73
2023/08/18 02:20:30;;;;;;;5.18;2.40;;;19.50;99.90;;;;;;4978207;28;20114;-72
2023/08/18 02:22:55;;;;;;;7.78;2.92;;;19.40;99.90;;;;;;4979656;28;20105;-73
2023/08/18 02:25:22;;;;;;;6.55;2.80;;;19.30;99.90;;;;;;4985107;28;20109;-72
2023/08/18 02:27:47;;;;;;;4.22;2.42;;;19.40;99.90;;;;;;4976694;28;20129;-72
2023/08/18 02:30:13;;;;;;;9.07;2.78;;;19.30;99.90;;;;;;4971010;28;20492;-73
2023/08/18 02:32:39;;;;;;;7.38;2.78;;;19.30;99.90;;;;;;4974459;28;20492;-73
2023/08/18 02:35:05;;;;;;;7.20;2.78;;;19.40;99.90;;;;;;4984621;28;20492;-73
2023/08/18 02:37:31;;;;;;;4.13;2.30;;;19.30;99.90;;;;;;4983167;28;24411;-72
2023/08/18 02:39:57;;;;;;;4.68;2.88;;;19.40;99.90;;;;;;4981981;28;20085;-72
2023/08/18 02:42:23;;;;;;;5.10;3.17;;;19.30;99.90;;;;;;4972540;28;20033;-73
2023/08/18 02:44:48;;;;;;;7.80;2.55;;;19.40;99.90;;;;;;4976177;28;20031;-72
2023/08/18 02:47:14;;;;;;;5.60;2.90;;;19.30;99.90;;;;;;4973007;28;20065;-71
2023/08/18 02:49:39;;;;;;;6.68;2.75;;;19.30;99.90;;;;;;4973030;28;20405;-71
2023/08/18 02:52:05;;;;;;;5.18;2.80;;;19.30;99.90;;;;;;4974800;28;20047;-72
2023/08/18 02:54:31;;;;;;;6.05;2.85;;;19.40;99.90;;;;;;4970502;28;20047;-71
2023/08/18 02:56:58;;;;;;;6.47;2.60;;;19.30;99.90;;;;;;4975302;28;20042;-71
2023/08/18 02:59:23;;;;;;;4.97;2.50;;;19.10;99.90;;;;;;4974812;28;20027;-72
2023/08/18 03:01:49;;;;;;;6.60;2.88;;;19.10;99.90;;;;;;4985687;28;20037;-72
2023/08/18 03:04:14;;;;;;;4.65;3.00;;;19.00;99.90;;;;;;4972343;28;20449;-72
2023/08/18 03:06:41;;;;;;;5.22;2.97;;;19.00;99.90;;;;;;4972527;28;20022;-71
2023/08/18 03:09:07;;;;;;;5.70;2.95;;;19.20;99.90;;;;;;4969864;28;20049;-72
2023/08/18 03:11:33;;;;;;;8.02;2.80;;;19.10;99.90;;;;;;4972363;28;20507;-72
2023/08/18 03:13:58;;;;;;;4.93;2.60;;;19.30;99.90;;;;;;4972399;28;20042;-72
2023/08/18 03:16:24;;;;;;;5.68;3.00;;;19.20;99.90;;;;;;4972984;28;20026;-72
2023/08/18 03:18:50;;;;;;;5.03;2.78;;;19.20;99.90;;;;;;4967317;28;20081;-72
2023/08/18 03:21:16;;;;;;;5.60;2.95;;;19.10;99.90;;;;;;4962752;28;20035;-72
2023/08/18 03:23:41;;;;;;;7.00;3.10;;;19.20;99.90;;;;;;4973350;28;20027;-71
2023/08/18 03:26:07;;;;;;;5.18;2.70;;;19.20;99.90;;;;;;4979149;28;20027;-72
2023/08/18 03:28:35;;;;;;;8.55;2.95;;;19.00;99.90;;;;;;4967885;28;20339;-72
2023/08/18 03:31:04;;;;;;;5.25;2.85;;;19.00;99.90;;;;;;4967228;28;20490;-72
2023/08/18 03:33:30;;;;;;;6.00;2.58;;;19.10;99.90;;;;;;4985249;28;20042;-72
2023/08/18 03:35:56;;;;;;;5.50;2.78;;;19.10;99.90;;;;;;4973888;28;20082;-72
2023/08/18 03:38:22;;;;;;;4.47;2.50;;;19.10;99.90;;;;;;4966918;28;20148;-72
2023/08/18 03:40:49;;;;;;;4.68;2.50;;;19.10;99.90;;;;;;4978143;28;20486;-72
2023/08/18 03:43:15;;;;;;;6.68;2.58;;;19.20;99.90;;;;;;4975247;28;20038;-71
2023/08/18 03:45:41;;;;;;;4.93;2.85;;;19.20;99.90;;;;;;4980020;28;20038;-72
2023/08/18 03:48:07;;;;;;;10.48;2.50;;;19.20;99.90;;;;;;4976049;28;20035;-71
2023/08/18 03:50:33;;;;;;;5.40;2.45;;;19.20;99.90;;;;;;4975496;28;20031;-72
2023/08/18 03:52:59;;;;;;;7.82;2.90;;;19.10;99.90;;;;;;4969947;28;20077;-72
2023/08/18 03:55:24;;;;;;;6.88;2.60;;;19.20;99.90;;;;;;4966654;28;20171;-72
2023/08/18 03:57:50;;;;;;;5.28;2.33;;;19.10;99.90;;;;;;4968558;28;20613;-72
2023/08/18 04:00:17;;;;;;;4.80;2.97;;;19.10;99.90;;;;;;4977630;28;20066;-72
2023/08/18 04:02:44;;;;;;;4.00;2.35;;;19.30;99.90;;;;;;4970621;28;20033;-71
2023/08/18 04:05:09;;;;;;;6.05;2.95;;;19.10;99.90;;;;;;4972244;28;20884;-72
2023/08/18 04:07:35;;;;;;;6.80;2.72;;;19.30;99.90;;;;;;4969841;28;20094;-72
2023/08/18 04:10:01;;;;;;;4.32;2.47;;;19.30;99.90;;;;;;4975020;28;20491;-71
2023/08/18 04:12:27;;;;;;;6.78;3.13;;;19.20;99.90;;;;;;4970964;28;20621;-72
2023/08/18 04:14:53;;;;;;;8.93;3.67;;;19.20;99.90;;;;;;4963174;28;20495;-72
2023/08/18 04:17:19;;;;;;;7.22;2.80;;;19.20;99.90;;;;;;4969604;28;20039;-72
2023/08/18 04:19:44;;;;;;;5.07;3.13;;;19.30;99.90;;;;;;4968510;28;20041;-72
2023/08/18 04:22:10;;;;;;;5.75;3.00;;;19.30;99.90;;;;;;4969500;28;20031;-72
2023/08/18 04:24:36;;;;;;;6.10;3.22;;;19.20;99.90;;;;;;4968928;28;20069;-72
2023/08/18 04:27:01;;;;;;;6.65;3.05;;;19.20;99.90;;;;;;4968872;28;20086;-72
2023/08/18 04:29:27;;;;;;;7.53;3.10;;;19.30;99.90;;;;;;4962880;28;20035;-72
2023/08/18 04:31:54;;;;;;;5.03;2.85;;;19.20;99.90;;;;;;4968477;28;21013;-72
2023/08/18 04:34:20;;;;;;;5.43;3.00;;;19.20;99.90;;;;;;4969572;28;20086;-72
2023/08/18 04:36:45;;;;;;;5.93;3.67;;;19.20;99.90;;;;;;4972920;28;20055;-72
2023/08/18 04:39:11;;;;;;;5.20;2.53;;;19.10;99.90;;;;;;4965978;28;20030;-72
2023/08/18 04:41:37;;;;;;;5.63;3.08;;;19.20;99.90;;;;;;4968239;28;20626;-72
2023/08/18 04:44:04;;;;;;;5.95;2.67;;;19.10;99.90;;;;;;4972364;28;20035;-72
2023/08/18 04:46:30;;;;;;;4.85;2.83;;;19.00;99.90;;;;;;4979766;28;20037;-72
2023/08/18 04:48:57;;;;;;;6.03;2.92;;;19.00;99.90;;;;;;4973480;28;20368;-72
2023/08/18 04:51:23;;;;;;;5.38;2.60;;;19.20;99.90;;;;;;4973279;28;20030;-72
2023/08/18 04:53:49;;;;;;;9.02;3.45;;;19.20;99.90;;;;;;4968126;28;20518;-72
2023/08/18 04:56:15;;;;;;;6.57;3.00;;;19.20;99.90;;;;;;4969313;28;20043;-73
2023/08/18 04:58:41;;;;;;;8.90;3.05;;;19.30;99.90;;;;;;4976407;28;24701;-73
2023/08/18 05:01:07;;;;;;;6.38;3.05;;;19.20;99.90;;;;;;4976726;28;20030;-73
2023/08/18 05:03:33;;;;;;;5.63;2.97;;;19.30;99.90;;;;;;4966769;28;20113;-73
2023/08/18 05:06:12;;;;;;;6.95;3.28;;;19.30;99.90;;;;;;4965179;28;20118;-73
2023/08/18 05:08:40;;;;;;;5.45;3.08;;;19.30;99.90;;;;;;4970563;28;20116;-73
2023/08/18 05:11:08;;;;;;;4.80;2.88;;;19.20;99.90;;;;;;4975536;28;20034;-72
2023/08/18 05:13:34;;;;;;;5.88;2.88;;;19.30;99.90;;;;;;4967981;28;20109;-73
2023/08/18 05:16:01;;;;;;;5.80;3.17;;;19.30;99.90;;;;;;4972757;28;20105;-73
2023/08/18 05:18:30;;;;;;;8.07;2.63;;;19.20;99.90;;;;;;4972270;28;20370;-73
2023/08/18 05:21:00;;;;;;;4.95;2.35;;;19.20;99.90;;;;;;4974732;28;20038;-73
2023/08/18 05:23:26;;;;;;;7.55;2.80;;;19.30;99.90;;;;;;4971515;28;20085;-73
2023/08/18 05:25:56;;;;;;;6.55;3.13;;;19.30;99.90;;;;;;4980215;28;20408;-73
2023/08/18 05:28:23;;;;;;;6.82;2.75;;;19.30;99.90;;;;;;4974096;28;20477;-72
2023/08/18 05:30:49;;;;;;;6.65;3.08;;;19.40;99.90;;;;;;4968676;28;20078;-74
2023/08/18 05:33:14;;;;;;;7.05;2.90;;;19.30;99.90;;;;;;4983391;28;20030;-72
2023/08/18 05:35:42;;;;;;;5.00;3.08;;;19.40;99.90;;;;;;4983575;28;20141;-72
2023/08/18 05:38:10;;;;;;;6.82;2.92;;;19.40;99.90;;;;;;4983849;28;20030;-72
2023/08/18 05:40:48;;;;;;;4.53;2.63;;;19.50;99.90;;;;;;4967424;28;20027;-72
2023/08/18 05:43:15;;;;;;;7.10;3.25;;;19.40;99.90;;;;;;4965983;28;20037;-72
2023/08/18 05:45:43;;;;;;;7.18;2.70;;;19.50;99.90;;;;;;4965352;28;20023;-72
2023/08/18 05:48:08;;;;;;;5.75;3.00;;;19.50;99.90;;;;;;4978053;28;20030;-73
2023/08/18 05:50:34;;;;;;;8.80;3.10;;;19.40;99.90;;;;;;4967101;28;20034;-72
2023/08/18 05:53:03;;;;;;;6.72;2.80;;;19.50;99.90;;;;;;4971256;28;20026;-73
2023/08/18 05:55:30;;;;;;;5.47;2.78;;;19.50;99.90;;;;;;4970365;28;20492;-74
2023/08/18 05:57:59;;;;;;;7.07;2.70;;;19.70;99.90;;;;;;4975313;28;20029;-73
2023/08/18 06:00:26;;;;;;;6.57;2.95;;;19.60;99.90;;;;;;4968043;28;20027;-73
2023/08/18 06:02:53;;;;;;;5.22;2.50;;;19.70;99.90;;;;;;4970507;28;20031;-73
2023/08/18 06:05:18;;;;;;;6.00;2.85;;;19.70;99.90;;;;;;4972306;28;20038;-73
2023/08/18 06:07:44;;;;;;;5.43;2.53;;;19.70;99.90;;;;;;4979424;28;20380;-73
2023/08/18 06:10:11;;;;;;;6.20;3.00;;;19.80;99.90;;;;;;4972691;28;20491;-73
2023/08/18 06:12:37;;;;;;;4.63;2.90;;;19.90;99.90;;;;;;4972350;28;20023;-73
2023/08/18 06:15:05;;;;;;;6.85;2.78;;;19.80;99.90;;;;;;4978798;28;20038;-73
2023/08/18 06:17:31;;;;;;;5.78;3.15;;;19.90;99.90;;;;;;4967175;28;20037;-73
2023/08/18 06:19:58;;;;;;;5.32;2.60;;;20.10;99.90;;;;;;4974361;28;20030;-73
2023/08/18 06:22:24;;;;;;;5.07;2.92;;;20.30;99.90;;;;;;4975193;28;20031;-74
2023/08/18 06:24:49;;;;;;;4.32;2.53;;;20.30;99.90;;;;;;4973764;28;20042;-74
2023/08/18 06:27:15;;;;;;;6.10;2.85;;;20.20;99.90;;;;;;4973651;28;20026;-74
2023/08/18 06:29:41;;;;;;;5.93;2.97;;;20.30;99.90;;;;;;4974779;28;20109;-73
2023/08/18 06:32:06;;;;;;;4.38;2.40;;;20.40;99.90;;;;;;4969352;28;20120;-75
2023/08/18 06:34:32;;;;;;;7.47;2.50;;;20.30;99.90;;;;;;4964449;28;20047;-76
2023/08/18 06:36:57;;;;;;;5.28;2.45;;;20.30;99.90;;;;;;4963772;28;20037;-74
2023/08/18 06:39:23;;;;;;;4.45;2.63;;;20.50;99.90;;;;;;4967101;28;20113;-73
2023/08/18 06:41:49;;;;;;;4.47;2.42;;;20.70;99.90;;;;;;4967513;28;20465;-74
2023/08/18 06:44:14;;;;;;;6.10;3.05;;;20.90;99.90;;;;;;4976705;28;20026;-74
2023/08/18 06:46:40;;;;;;;4.82;2.47;;;21.00;99.90;;;;;;4972405;28;20038;-74
2023/08/18 06:49:06;;;;;;;6.97;3.15;;;21.10;99.90;;;;;;4968842;28;20085;-73
2023/08/18 06:51:31;;;;;;;5.45;3.03;;;21.00;99.90;;;;;;4972697;28;20034;-73
2023/08/18 06:53:57;;;;;;;6.50;2.88;;;21.20;99.90;;;;;;4970998;28;20648;-74
2023/08/18 06:56:23;;;;;;;5.45;2.53;;;21.40;99.90;;;;;;4965657;28;20030;-75
2023/08/18 06:58:48;;;;;;;6.60;2.40;;;21.60;99.90;;;;;;4970957;28;20546;-74
2023/08/18 07:01:14;;;;;;;6.55;2.88;;;21.80;99.90;;;;;;4967802;28;20035;-73
2023/08/18 07:03:40;;;;;;;7.35;2.83;;;22.60;99.90;;;;;;4975722;28;20034;-73
2023/08/18 07:06:05;;;;;;;5.53;2.72;;;23.30;99.90;;;;;;4974805;28;20041;-74
2023/08/18 07:08:32;;;;;;;4.60;2.72;;;23.90;99.90;;;;;;4977544;28;20818;-74
2023/08/18 07:10:58;;;;;;;5.45;2.25;;;24.40;99.90;;;;;;4979829;28;20361;-74
2023/08/18 07:13:24;;;;;;;4.75;2.40;;;24.30;99.90;;;;;;4978441;28;20033;-74
2023/08/18 07:15:49;;;;;;;4.50;2.10;;;24.30;99.90;;;;;;4970382;28;20062;-74
2023/08/18 07:18:17;;;;;;;6.53;2.28;;;24.40;99.90;;;;;;4978718;28;20035;-74
2023/08/18 07:20:43;;;;;;;7.40;2.30;;;24.90;99.90;;;;;;4970303;28;20031;-74
2023/08/18 07:23:09;;;;;;;4.18;2.47;;;24.90;99.90;;;;;;4972098;28;20194;-74
2023/08/18 07:25:36;;;;;;;8.27;2.53;;;25.20;99.90;;;;;;4963041;28;20532;-74
2023/08/18 07:28:01;;;;;;;5.53;2.60;;;25.60;99.90;;;;;;4966980;28;20045;-74
2023/08/18 07:30:27;;;;;;;4.50;1.90;;;26.50;99.90;;;;;;4967524;28;20827;-74
2023/08/18 07:32:54;;;;;;;3.83;1.88;;;26.00;99.90;;;;;;4968802;28;20453;-74
2023/08/18 07:35:20;;;;;;;5.18;2.30;;;26.10;99.90;;;;;;4973747;28;20053;-74
2023/08/18 07:37:45;;;;;;;3.55;2.10;;;25.90;99.90;;;;;;4975872;28;20110;-74
2023/08/18 07:40:12;;;;;;;7.55;3.13;;;25.60;99.90;;;;;;4973090;28;20105;-74
2023/08/18 07:42:39;;;;;;;4.80;2.75;;;25.30;99.90;;;;;;4966709;28;20029;-75
2023/08/18 07:45:06;;;;;;;6.00;2.63;;;25.40;99.90;;;;;;4964636;28;20085;-74
2023/08/18 07:47:34;;;;;;;8.45;2.50;;;24.20;99.90;;;;;;4976044;28;20038;-74
2023/08/18 07:50:00;;;;;;;6.28;2.20;;;23.30;99.90;;;;;;4971311;28;20414;-74
2023/08/18 07:52:25;;;;;;;4.75;2.60;;;23.10;99.90;;;;;;4970441;28;20026;-73
2023/08/18 07:54:51;;;;;;;4.72;2.30;;;22.90;99.90;;;;;;4967899;28;20039;-73
2023/08/18 07:57:17;;;;;;;5.57;2.30;;;22.80;99.90;;;;;;4972539;28;20042;-73
2023/08/18 07:59:42;;;;;;;5.57;2.35;;;22.70;99.90;;;;;;4972823;28;20602;-74
2023/08/18 08:02:08;;;;;;;7.47;2.70;;;22.50;99.90;;;;;;4983555;28;20037;-74
2023/08/18 08:04:34;;;;;;;4.75;2.38;;;22.50;99.90;;;;;;4973155;28;20174;-74
2023/08/18 08:07:00;;;;;;;4.88;2.67;;;22.50;99.90;;;;;;4975833;28;20030;-74
2023/08/18 08:09:26;;;;;;;5.43;2.50;;;22.40;99.90;;;;;;4971846;28;20030;-73
2023/08/18 08:11:52;;;;;;;4.72;2.65;;;22.40;99.90;;;;;;4977461;28;20117;-74
2023/08/18 08:14:19;;;;;;;5.55;2.83;;;22.30;99.90;;;;;;4967263;28;20041;-73
2023/08/18 08:16:45;;;;;;;5.32;2.47;;;22.40;99.90;;;;;;4970186;28;20169;-74
2023/08/18 08:19:12;;;;;;;7.90;2.72;;;22.50;99.90;;;;;;4968261;28;20037;-74
2023/08/18 08:21:38;;;;;;;4.93;2.67;;;22.60;99.90;;;;;;4970989;28;20026;-75
2023/08/18 08:24:05;;;;;;;6.85;2.72;;;22.60;99.90;;;;;;4974447;28;20027;-74
2023/08/18 08:26:30;;;;;;;5.50;2.90;;;22.80;99.90;;;;;;4979195;28;20030;-74
2023/08/18 08:28:56;;;;;;;5.82;2.70;;;22.80;99.90;;;;;;4977553;28;20042;-73
2023/08/18 08:31:22;;;;;;;4.45;2.80;;;22.70;99.90;;;;;;4977164;28;20049;-73
2023/08/18 08:33:47;;;;;;;4.85;2.60;;;22.80;99.90;;;;;;4975167;28;20027;-74
2023/08/18 08:36:13;;;;;;;5.93;2.80;;;23.20;99.90;;;;;;4974476;28;20026;-74
2023/08/18 08:38:38;;;;;;;5.40;2.28;;;24.10;99.90;;;;;;4970218;28;20034;-73
2023/08/18 08:41:04;;;;;;;4.18;2.53;;;24.60;99.90;;;;;;4975956;28;20034;-73
2023/08/18 08:43:30;;;;;;;5.53;2.97;;;25.00;99.90;;;;;;4973997;28;20038;-73
2023/08/18 08:45:58;;;;;;;6.05;2.42;;;25.80;99.90;;;;;;4980682;28;20037;-73
2023/08/18 08:48:36;;;;;;;4.28;2.38;;;26.00;99.90;;;;;;4990711;28;20034;-73
2023/08/18 08:51:04;;;;;;;4.47;2.67;;;25.50;99.90;;;;;;4989051;28;20110;-73
2023/08/18 08:53:38;;;;;;;5.47;2.65;;;26.50;99.90;;;;;;4972672;28;20041;-73
2023/08/18 08:56:05;;;;;;;;;;;27.10;99.90;;;;;;4973018;28;20091;-73
2023/08/18 08:58:32;;;;;;;3.90;1.83;;;27.50;99.50;;;;;;4972083;28;20406;-73
2023/08/18 09:01:01;;;;;;;8.95;2.60;;;27.20;99.90;;;;;;4971770;28;20481;-73
2023/08/18 09:03:30;;;;;;;4.18;2.38;;;26.90;99.50;;;;;;4976742;28;20105;-73
2023/08/18 09:05:55;;;;;;;4.05;2.22;;;26.50;99.60;;;;;;4991578;28;20030;-73
2023/08/18 09:08:21;;;;;;;5.18;2.17;;;26.10;99.70;;;;;;4991619;28;20629;-73
2023/08/18 09:10:48;;;;;;;4.38;2.20;;;25.50;99.90;;;;;;4989200;28;20038;-73
2023/08/18 09:13:14;;;;;;;5.63;2.70;;;25.30;99.90;;;;;;4990917;28;20600;-73
2023/08/18 09:15:42;;;;;;;8.10;2.60;;;25.70;99.90;;;;;;4990454;28;20443;-73
2023/08/18 09:18:08;;;;;;;3.85;2.10;;;25.60;99.90;;;;;;4990755;28;20093;-73
2023/08/18 09:20:34;;;;;;;5.20;2.10;;;25.50;99.90;;;;;;4990553;28;20026;-73
2023/08/18 09:23:00;;;;;;;6.03;2.22;;;25.20;99.90;;;;;;4990598;28;20098;-73
2023/08/18 09:25:26;;;;;;;5.65;2.58;;;25.30;99.90;;;;;;4990398;28;20160;-73
2023/08/18 09:27:51;;;;;;;4.03;2.55;;;25.20;99.90;;;;;;4990050;28;20471;-73
2023/08/18 09:30:17;;;;;;;4.05;2.55;;;25.00;99.90;;;;;;4991114;28;20090;-73
2023/08/18 09:32:43;;;;;;;4.20;2.70;;;25.10;99.90;;;;;;4991016;28;20045;-73
2023/08/18 09:35:12;;;;;;;7.97;2.40;;;24.90;99.90;;;;;;4991044;28;20590;-74
2023/08/18 09:37:38;;;;;;;4.03;2.42;;;24.90;99.90;;;;;;4990882;28;20121;-74
2023/08/18 09:40:05;;;;;;;4.00;2.70;;;24.70;99.90;;;;;;4988761;28;20105;-74
2023/08/18 09:42:30;;;;;;;9.10;2.40;;;25.00;99.90;;;;;;4990122;28;20034;-75
2023/08/18 09:44:56;;;;;;;6.18;1.80;;;25.00;99.90;;;;;;4990276;28;20049;-74
2023/08/18 09:47:24;;;;;;;8.30;2.90;;;25.30;99.90;;;;;;4973540;28;20037;-74
2023/08/18 09:49:51;;;;;;;9.23;3.13;;;25.30;99.90;;;;;;4979656;28;20038;-74
2023/08/18 09:52:18;;;;;;;5.40;2.42;;;25.70;99.90;;;;;;4974330;28;20027;-74
2023/08/18 09:54:49;;;;;;;6.55;2.58;;;25.90;99.90;;;;;;4967521;28;20050;-74
2023/08/18 09:57:37;;;;;;;7.95;2.58;;;26.00;99.90;;;;;;4967005;28;20492;-74
2023/08/18 10:00:04;;;;;;;4.55;2.80;;;26.00;99.90;;;;;;4966425;28;20078;-74
2023/08/18 10:02:34;;;;;;;4.07;2.40;;;26.10;99.90;;;;;;4974075;28;20026;-74
2023/08/18 10:05:00;;;;;;;6.65;2.30;;;25.60;99.90;;;;;;4967786;28;20031;-74
2023/08/18 10:07:27;;;;;;;4.38;2.75;;;25.40;99.90;;;;;;4974006;28;20039;-73
2023/08/18 10:09:54;;;;;;;5.30;2.35;;;25.50;99.90;;;;;;4973976;28;20026;-73
2023/08/18 10:12:21;;;;;;;8.02;2.58;;;25.50;99.90;;;;;;4974827;28;20193;-73
2023/08/18 10:14:49;;;;;;;4.38;2.50;;;25.90;99.90;;;;;;4977822;28;20046;-73
2023/08/18 10:17:15;;;;;;;8.70;2.67;;;26.00;99.90;;;;;;4976550;28;20038;-73
2023/08/18 10:19:50;;;;;;;4.40;2.45;;;26.00;99.90;;;;;;4978367;28;20061;-73
2023/08/18 10:22:21;;;;;;;5.75;2.45;;;25.80;99.90;;;;;;4975693;28;20381;-73
2023/08/18 10:24:48;;;;;;;5.10;2.03;;;25.70;99.90;;;;;;4977667;28;20034;-74
2023/08/18 10:27:29;;;;;;;5.55;2.80;;;25.90;99.90;;;;;;4975570;28;20041;-73
2023/08/18 10:30:07;;;;;;;5.10;2.45;;;26.10;99.90;;;;;;4967108;28;20481;-73
2023/08/18 10:32:33;;;;;;;4.35;2.20;;;26.10;99.90;;;;;;4968854;28;20521;-73
2023/08/18 10:35:22;;;;;;;4.82;2.20;;;26.20;99.90;;;;;;4977972;28;20073;-73
2023/08/18 10:38:07;;;;;;;5.70;2.78;;;26.10;99.90;;;;;;4974050;28;20062;-74
2023/08/18 10:40:34;;;;;;;7.60;2.45;;;26.00;99.90;;;;;;4966113;28;20030;-74
2023/08/18 10:43:29;;;;;;;3.13;1.83;;;26.30;99.90;;;;;;4968344;28;20031;-74
2023/08/18 10:45:59;;;;;;;4.45;2.33;;;26.30;99.90;;;;;;4955973;28;20058;-73
2023/08/18 10:48:32;;;;;;;5.97;2.38;;;26.10;99.90;;;;;;4968735;28;20586;-74
2023/08/18 10:50:58;;;;;;;7.53;2.63;;;26.30;99.90;;;;;;4977949;28;20025;-73
2023/08/18 10:53:24;;;;;;;4.85;2.33;;;26.40;99.90;;;;;;4979613;28;20027;-73
2023/08/18 10:55:53;;;;;;;4.68;2.35;;;26.50;99.90;;;;;;4965660;28;20119;-73
2023/08/18 10:58:20;;;;;;;4.80;2.33;;;26.80;99.90;;;;;;4980098;28;20113;-73
2023/08/18 11:00:46;;;;;;;4.88;2.50;;;26.70;99.90;;;;;;4973298;28;20042;-73
2023/08/18 11:03:12;;;;;;;4.13;2.38;;;26.70;99.90;;;;;;4982799;28;20027;-73
2023/08/18 11:05:39;;;;;;;4.47;2.25;;;27.00;99.90;;;;;;4973812;28;20181;-73
2023/08/18 11:08:09;;;;;;;5.45;2.30;;;27.30;99.40;;;;;;4975724;28;20116;-73
2023/08/18 11:10:38;;;;;;;4.88;2.00;;;27.50;99.20;;;;;;4975136;28;20026;-73
2023/08/18 11:13:04;;;;;;;5.10;2.40;;;27.50;99.80;;;;;;4970819;28;20033;-73
2023/08/18 11:15:30;;;;;;;5.05;2.35;;;27.40;99.20;;;;;;4973853;28;20062;-74
2023/08/18 11:17:56;;;;;;;3.97;2.17;;;27.40;98.70;;;;;;4973409;28;20043;-73
2023/08/18 11:20:22;;;;;;;5.00;2.50;;;27.40;99.10;;;;;;4968589;28;20041;-73
2023/08/18 11:22:53;;;;;;;6.40;2.40;;;27.40;99.50;;;;;;4969288;28;20031;-73
2023/08/18 11:25:23;;;;;;;4.07;1.98;;;27.40;99.10;;;;;;4968509;28;20477;-73
2023/08/18 11:27:51;;;;;;;4.45;2.35;;;27.40;98.70;;;;;;4969864;28;20027;-73
2023/08/18 11:30:18;;;;;;;4.50;1.90;;;27.40;98.70;;;;;;4974479;28;20022;-73
2023/08/18 11:32:45;;;;;;;4.10;2.47;;;27.80;98.40;;;;;;4979767;28;20033;-74
2023/08/18 11:35:12;;;;;;;9.38;2.22;;;28.00;97.70;;;;;;4970689;28;20088;-73
2023/08/18 11:37:44;;;;;;;4.40;2.50;;;28.00;97.80;;;;;;4976337;28;20027;-73
2023/08/18 11:40:12;;;;;;;3.78;2.20;;;27.80;98.50;;;;;;4975479;28;20132;-73
2023/08/18 11:42:45;;;;;;;4.57;1.92;;;27.60;97.60;;;;;;4965997;28;20110;-74
2023/08/18 11:45:15;;;;;;;3.97;2.33;;;27.60;97.30;;;;;;4965377;28;20026;-73
2023/08/18 11:47:57;;;;;;;4.60;2.25;;;27.70;97.60;;;;;;4975458;28;20157;-73
2023/08/18 11:50:33;;;;;;;6.97;2.53;;;27.60;97.30;;;;;;4966883;28;20617;-73
2023/08/18 11:52:59;;;;;;;4.97;1.95;;;27.50;97.90;;;;;;4962115;28;20069;-73
2023/08/18 11:55:36;;;;;;;4.15;2.25;;;27.80;98.40;;;;;;4976017;28;20046;-73
2023/08/18 11:58:14;;;;;;;4.05;2.10;;;28.40;98.80;;;;;;4964882;28;20527;-72
2023/08/18 12:00:41;;;;;;;6.18;2.72;;;28.50;99.10;;;;;;4975717;28;20046;-73
2023/08/18 12:03:21;;;;;;;5.28;1.92;;;28.50;98.00;;;;;;4970923;28;20027;-73
2023/08/18 12:05:47;;;;;;;8.60;2.58;;;28.00;96.60;;;;;;4965188;28;20064;-72
2023/08/18 12:08:12;;;;;;;5.43;2.25;;;28.10;97.20;;;;;;4976976;28;20476;-73
2023/08/18 12:10:38;;;;;;;4.47;2.50;;;28.40;98.10;;;;;;4966682;28;20667;-73
2023/08/18 12:13:04;;;;;;;7.10;2.17;;;28.40;97.70;;;;;;4976914;28;20085;-73
2023/08/18 12:15:30;;;;;;;4.32;1.92;;;28.70;97.90;;;;;;4972418;28;20085;-74
2023/08/18 12:17:56;;;;;;;5.18;2.08;;;28.60;98.00;;;;;;4976716;28;20457;-74
2023/08/18 12:20:23;;;;;;;6.18;2.10;;;28.80;98.80;;;;;;4971421;28;20038;-74
2023/08/18 12:22:50;;;;;;;5.43;2.45;;;28.70;98.80;;;;;;4972000;28;20031;-74
2023/08/18 12:25:17;;;;;;;5.72;1.85;;;28.90;98.10;;;;;;4970967;28;20106;-74
2023/08/18 12:27:49;;;;;;;4.10;2.10;;;29.10;97.40;;;;;;4970080;28;20065;-74
2023/08/18 12:30:16;;;;;;;3.97;2.10;;;29.10;97.60;;;;;;4968022;28;20110;-74
2023/08/18 12:32:43;;;;;;;4.68;2.25;;;28.90;97.50;;;;;;4971228;28;20424;-74
2023/08/18 12:35:10;;;;;;;4.55;2.42;;;28.70;97.40;;;;;;4964680;28;20126;-74
2023/08/18 12:37:36;;;;;;;3.97;2.22;;;28.60;96.90;;;;;;4982589;28;20403;-74
2023/08/18 12:40:05;;;;;;;5.43;2.22;;;28.40;97.00;;;;;;4964518;28;20031;-74
2023/08/18 12:42:32;;;;;;;3.67;2.03;;;28.60;98.00;;;;;;4965930;28;20515;-74
2023/08/18 12:44:57;;;;;;;3.60;2.45;;;28.70;98.00;;;;;;4971092;28;20027;-74
2023/08/18 12:47:23;;;;;;;2.92;1.77;;;28.90;97.60;;;;;;4979366;28;20041;-74
2023/08/18 12:49:49;;;;;;;5.60;2.13;;;29.10;97.90;;;;;;4963884;28;20035;-74